Time;durP1;ratioP1;P1;durP2;ratioP2;P2;SDS_P1;SDS_P2;PMS_P1;PMS_P2;Temp;Humidity;BMP_temperature;BMP_pressure;BME280_temperature;BME280_humidity;BME280_pressure;Samples;Min_cycle;Max_cycle;Signal;HPM_P1;HPM_P2
2024/03/29 00:00:59;;;;;;;;;;;;;;;7.00;100.00;95258.63;108556;1274;124983;-81
2024/03/29 00:03:46;;;;;;;;;;;;;;;6.96;100.00;95263.15;108635;1280;22451;-82
2024/03/29 00:06:12;;;;;;;;;;;;;;;6.93;100.00;95262.91;108596;1279;124952;-81
2024/03/29 00:08:38;;;;;;;;;;;;;;;6.89;100.00;95260.98;108687;1278;22522;-81
2024/03/29 00:11:05;;;;;;;;;;;;;;;6.89;100.00;95264.98;108593;1280;24285;-81
2024/03/29 00:13:32;;;;;;;;;;;;;;;6.87;100.00;95272.95;108659;1275;22453;-82
2024/03/29 00:15:58;;;;;;;;;;;;;;;6.86;100.00;95271.67;108601;1271;22526;-81
2024/03/29 00:18:24;;;;;;;;;;;;;;;6.82;100.00;95270.84;108533;1278;124967;-81
2024/03/29 00:20:50;;;;;;;;;;;;;;;6.79;100.00;95278.08;108573;1279;22537;-82
2024/03/29 00:23:17;;;;;;;;;;;;;;;6.79;100.00;95284.27;108488;1280;125008;-82
2024/03/29 00:25:43;;;;;;;;;;;;;;;6.77;100.00;95287.07;108626;1275;22534;-82
2024/03/29 00:28:10;;;;;;;;;;;;;;;6.73;100.00;95296.57;108581;1280;22518;-81
2024/03/29 00:30:36;;;;;;;;;;;;;;;6.70;100.00;95306.87;108511;1271;124837;-82
2024/03/29 00:33:03;;;;;;;;;;;;;;;6.68;100.00;95313.13;108660;1276;22547;-82
2024/03/29 00:35:29;;;;;;;;;;;;;;;6.67;100.00;95324.14;108450;1278;124972;-82
2024/03/29 00:37:55;;;;;;;;;;;;;;;6.65;100.00;95324.67;108668;1280;23120;-81
2024/03/29 00:40:21;;;;;;;;;;;;;;;6.63;100.00;95322.98;108628;1272;22560;-82
2024/03/29 00:42:48;;;;;;;;;;;;;;;6.63;100.00;95322.95;108599;1280;124831;-81
2024/03/29 00:45:14;;;;;;;;;;;;;;;6.62;100.00;95320.76;108676;1280;22627;-81
2024/03/29 00:47:40;;;;;;;;;;;;;;;6.60;100.00;95322.65;108568;1280;125142;-81
2024/03/29 00:50:09;;;;;;;;;;;;;;;6.58;100.00;95322.39;108696;1280;22485;-81
2024/03/29 00:52:36;;;;;;;;;;;;;;;6.56;100.00;95319.94;108614;1280;22571;-82
2024/03/29 00:55:02;;;;;;;;;;;;;;;6.55;100.00;95326.02;108552;1266;124687;-81
2024/03/29 00:57:29;;;;;;;;;;;;;;;6.51;100.00;95324.23;108643;1280;24810;-81
2024/03/29 00:59:56;;;;;;;;;;;;;;;6.42;100.00;95329.35;108627;1264;124794;-81
2024/03/29 01:02:23;;;;;;;;;;;;;;;6.36;100.00;95339.30;108659;1278;23081;-82
2024/03/29 01:04:50;;;;;;;;;;;;;;;6.29;100.00;95340.77;108660;1278;25422;-82
2024/03/29 01:07:17;;;;;;;;;;;;;;;6.23;100.00;95350.37;108658;1280;124902;-82
2024/03/29 01:09:43;;;;;;;;;;;;;;;6.18;100.00;95353.16;108648;1272;22471;-82
2024/03/29 01:12:10;;;;;;;;;;;;;;;6.14;100.00;95360.32;108617;1278;124847;-82
2024/03/29 01:14:36;;;;;;;;;;;;;;;6.09;100.00;95366.70;108677;1263;22558;-81
2024/03/29 01:17:03;;;;;;;;;;;;;;;6.09;100.00;95378.92;108570;1280;23182;-82
2024/03/29 01:19:29;;;;;;;;;;;;;;;6.08;100.00;95380.13;108553;1273;124744;-82
2024/03/29 01:21:55;;;;;;;;;;;;;;;6.03;99.98;95380.34;108682;1277;22650;-82
2024/03/29 01:24:23;;;;;;;;;;;;;;;6.00;100.00;95389.05;108598;1273;124559;-82
2024/03/29 01:26:49;;;;;;;;;;;;;;;6.00;99.98;95399.92;108594;1280;22453;-82
2024/03/29 01:29:16;;;;;;;;;;;;;;;6.00;99.98;95411.91;108527;1279;124860;-82
2024/03/29 01:31:42;;;;;;;;;;;;;;;5.99;99.96;95419.23;108743;1276;24251;-81
2024/03/29 01:34:09;;;;;;;;;;;;;;;6.00;99.96;95435.80;108672;1280;22507;-81
2024/03/29 01:36:35;;;;;;;;;;;;;;;5.99;99.66;95435.91;108501;1274;124576;-81
2024/03/29 01:39:02;;;;;;;;;;;;;;;5.99;99.55;95442.33;108595;1275;22533;-81
2024/03/29 01:41:28;;;;;;;;;;;;;;;5.98;99.45;95452.00;108611;1280;124886;-81
2024/03/29 01:43:55;;;;;;;;;;;;;;;5.97;99.54;95457.02;108720;1278;22526;-81
2024/03/29 01:46:22;;;;;;;;;;;;;;;5.95;99.47;95471.98;108699;1278;25677;-81
2024/03/29 01:48:48;;;;;;;;;;;;;;;5.96;99.61;95473.23;108603;1280;124708;-81
2024/03/29 01:51:15;;;;;;;;;;;;;;;5.96;99.67;95487.52;108692;1276;22542;-81
2024/03/29 01:53:41;;;;;;;;;;;;;;;5.97;99.25;95498.23;108505;1278;125508;-81
2024/03/29 01:56:07;;;;;;;;;;;;;;;5.96;99.17;95502.44;108630;1276;23244;-82
2024/03/29 01:58:34;;;;;;;;;;;;;;;5.96;98.76;95508.66;108624;1272;22524;-81
2024/03/29 02:01:00;;;;;;;;;;;;;;;5.96;99.11;95514.71;108498;1272;124677;-82
2024/03/29 02:03:26;;;;;;;;;;;;;;;5.95;98.75;95514.83;108575;1279;22508;-81
2024/03/29 02:05:53;;;;;;;;;;;;;;;5.95;98.70;95524.35;108582;1280;124543;-82
2024/03/29 02:08:19;;;;;;;;;;;;;;;5.94;98.39;95532.23;108675;1280;22681;-82
2024/03/29 02:10:46;;;;;;;;;;;;;;;5.93;98.31;95535.95;108598;1276;22905;-82
2024/03/29 02:13:12;;;;;;;;;;;;;;;5.93;98.40;95541.02;108544;1278;124821;-82
2024/03/29 02:15:41;;;;;;;;;;;;;;;5.94;98.36;95546.73;108650;1278;22554;-82
2024/03/29 02:18:08;;;;;;;;;;;;;;;5.95;97.95;95543.35;108652;1272;124572;-82
2024/03/29 02:20:35;;;;;;;;;;;;;;;5.95;97.72;95545.57;108647;1279;22545;-81
2024/03/29 02:23:02;;;;;;;;;;;;;;;5.94;97.43;95547.06;108743;1280;22531;-82
2024/03/29 02:25:28;;;;;;;;;;;;;;;5.95;97.18;95555.44;109942;1276;125075;-82
2024/03/29 02:27:55;;;;;;;;;;;;;;;5.96;97.19;95554.91;110025;1273;22423;-82
2024/03/29 02:30:22;;;;;;;;;;;;;;;5.98;96.73;95563.83;109888;1275;124820;-83
2024/03/29 02:32:48;;;;;;;;;;;;;;;6.00;96.81;95563.18;110085;1280;24920;-82
2024/03/29 02:35:15;;;;;;;;;;;;;;;6.01;96.24;95565.70;109901;1275;124790;-82
2024/03/29 02:37:41;;;;;;;;;;;;;;;6.04;96.37;95568.33;110034;1277;22391;-83
2024/03/29 02:40:08;;;;;;;;;;;;;;;6.03;96.04;95577.02;109998;1280;23014;-82
2024/03/29 02:42:35;;;;;;;;;;;;;;;6.03;95.97;95579.95;109855;1280;124634;-82
2024/03/29 02:45:02;;;;;;;;;;;;;;;6.05;95.70;95581.96;109924;1263;22396;-82
2024/03/29 02:47:29;;;;;;;;;;;;;;;6.05;95.40;95587.16;109874;1277;124854;-82
2024/03/29 02:49:55;;;;;;;;;;;;;;;6.07;95.17;95586.91;109963;1278;22381;-82
2024/03/29 02:52:21;;;;;;;;;;;;;;;6.08;95.08;95585.42;109973;1276;22482;-82
2024/03/29 02:54:48;;;;;;;;;;;;;;;6.07;95.06;95590.30;109894;1275;124869;-82
2024/03/29 02:57:14;;;;;;;;;;;;;;;6.07;94.58;95598.55;109996;1278;22392;-82
2024/03/29 02:59:41;;;;;;;;;;;;;;;6.09;94.51;95605.04;109953;1269;124756;-82
2024/03/29 03:02:07;;;;;;;;;;;;;;;6.11;94.28;95609.31;110095;1276;23172;-82
2024/03/29 03:04:34;;;;;;;;;;;;;;;6.13;93.98;95611.48;109954;1278;22395;-82
2024/03/29 03:12:32;;;;;;;;;;;;;;;6.16;93.11;95607.52;108552;1279;124887;-82
2024/03/29 03:15:01;;;;;;;;;;;;;;;6.16;92.77;95604.08;108647;1275;22572;-82
2024/03/29 03:17:27;;;;;;;;;;;;;;;6.18;92.67;95600.23;108547;1273;124780;-82
2024/03/29 03:19:54;;;;;;;;;;;;;;;6.20;92.38;95604.31;108683;1279;25310;-81
2024/03/29 03:22:20;;;;;;;;;;;;;;;6.20;92.46;95604.55;108754;1280;22848;-81
2024/03/29 03:24:47;;;;;;;;;;;;;;;6.18;91.98;95598.85;108666;1260;124652;-81
2024/03/29 03:27:14;;;;;;;;;;;;;;;6.18;91.80;95591.98;108722;1260;22467;-81
2024/03/29 03:29:40;;;;;;;;;;;;;;;6.18;91.34;95594.59;108602;1280;124726;-81
2024/03/29 03:32:06;;;;;;;;;;;;;;;6.19;91.64;95591.88;108611;1279;22556;-81
2024/03/29 03:34:33;;;;;;;;;;;;;;;6.20;91.31;95591.98;108758;1273;22575;-81
2024/03/29 03:36:59;;;;;;;;;;;;;;;6.17;91.33;95586.56;108607;1279;124837;-81
2024/03/29 03:39:26;;;;;;;;;;;;;;;6.11;91.35;95586.90;108651;1280;22539;-81
2024/03/29 03:41:52;;;;;;;;;;;;;;;6.08;91.53;95591.29;108486;1279;124902;-81
2024/03/29 03:44:18;;;;;;;;;;;;;;;6.04;91.61;95604.48;108648;1278;22461;-81
2024/03/29 03:46:45;;;;;;;;;;;;;;;5.99;91.55;95616.77;108564;1273;22593;-81
2024/03/29 03:49:11;;;;;;;;;;;;;;;5.95;91.60;95618.96;108646;1280;124761;-81
2024/03/29 03:51:37;;;;;;;;;;;;;;;5.90;91.36;95615.10;108758;1280;22594;-81
2024/03/29 03:54:04;;;;;;;;;;;;;;;5.87;91.91;95617.66;108647;1280;124716;-81
2024/03/29 03:56:30;;;;;;;;;;;;;;;5.85;92.61;95618.88;108758;1280;22525;-81
2024/03/29 03:58:56;;;;;;;;;;;;;;;5.79;92.73;95613.75;108695;1280;22901;-81
2024/03/29 04:01:23;;;;;;;;;;;;;;;5.76;92.26;95610.61;108527;1279;124523;-82
2024/03/29 04:03:49;;;;;;;;;;;;;;;5.73;92.95;95606.16;108644;1273;23805;-81
2024/03/29 04:06:15;;;;;;;;;;;;;;;5.68;93.14;95603.75;108521;1278;124540;-81
2024/03/29 04:08:43;;;;;;;;;;;;;;;5.65;93.39;95602.48;108654;1279;22523;-82
2024/03/29 04:11:10;;;;;;;;;;;;;;;5.64;92.94;95609.00;108582;1280;124743;-82
2024/03/29 04:13:38;;;;;;;;;;;;;;;5.64;93.17;95612.29;108649;1266;24994;-81
2024/03/29 04:16:05;;;;;;;;;;;;;;;5.69;92.38;95609.84;108760;1273;22570;-82
2024/03/29 04:18:32;;;;;;;;;;;;;;;5.74;92.88;95605.98;108576;1280;124777;-82
2024/03/29 04:21:01;;;;;;;;;;;;;;;5.73;92.55;95607.67;108698;1263;22542;-82
2024/03/29 04:23:27;;;;;;;;;;;;;;;5.73;92.70;95614.21;108614;1280;124765;-82
2024/03/29 04:25:54;;;;;;;;;;;;;;;5.71;92.20;95606.69;108690;1281;22513;-82
2024/03/29 04:28:21;;;;;;;;;;;;;;;5.75;91.74;95613.17;108655;1281;24302;-82
2024/03/29 04:30:54;;;;;;;;;;;;;;;5.78;91.84;95623.48;108487;1276;124590;-82
2024/03/29 04:33:20;;;;;;;;;;;;;;;5.82;91.19;95628.36;108685;1280;24343;-82
2024/03/29 04:35:52;;;;;;;;;;;;;;;5.86;90.87;95631.63;108539;1280;124710;-82
2024/03/29 04:38:19;;;;;;;;;;;;;;;5.92;90.43;95637.67;108635;1277;22521;-82
2024/03/29 04:40:45;;;;;;;;;;;;;;;5.97;90.16;95648.31;108660;1273;23323;-82
2024/03/29 04:43:11;;;;;;;;;;;;;;;6.00;90.44;95646.73;108608;1277;127120;-82
2024/03/29 04:45:38;;;;;;;;;;;;;;;5.97;90.44;95650.34;108673;1281;22575;-82
2024/03/29 04:48:04;;;;;;;;;;;;;;;5.95;90.64;95655.61;108528;1273;124651;-82
2024/03/29 04:50:31;;;;;;;;;;;;;;;5.94;91.21;95666.03;108564;1280;25394;-82
2024/03/29 04:52:57;;;;;;;;;;;;;;;5.93;91.13;95678.03;108630;1281;22475;-82
2024/03/29 04:55:23;;;;;;;;;;;;;;;5.87;91.23;95675.68;108536;1281;124915;-82
2024/03/29 04:57:49;;;;;;;;;;;;;;;5.84;90.28;95686.23;108631;1273;23253;-82
2024/03/29 05:00:16;;;;;;;;;;;;;;;5.86;90.56;95687.55;108631;1277;125257;-82
2024/03/29 05:02:42;;;;;;;;;;;;;;;5.90;89.59;95687.92;108692;1280;22629;-82
2024/03/29 05:05:08;;;;;;;;;;;;;;;5.98;89.63;95683.91;108553;1274;124769;-82
2024/03/29 05:07:35;;;;;;;;;;;;;;;6.05;88.78;95677.87;108647;1273;22552;-82
2024/03/29 05:10:03;;;;;;;;;;;;;;;6.17;87.39;95666.09;108752;1279;22524;-82
2024/03/29 05:12:29;;;;;;;;;;;;;;;6.25;88.47;95667.09;108627;1280;124603;-82
2024/03/29 05:14:56;;;;;;;;;;;;;;;6.24;88.23;95670.74;108614;1275;22479;-82
2024/03/29 05:17:25;;;;;;;;;;;;;;;6.26;88.15;95669.66;108528;1280;124770;-82
2024/03/29 05:19:51;;;;;;;;;;;;;;;6.27;88.02;95671.46;108640;1280;23348;-82
2024/03/29 05:22:18;;;;;;;;;;;;;;;6.27;87.54;95675.68;108558;1277;22479;-82
2024/03/29 05:24:44;;;;;;;;;;;;;;;6.28;87.79;95675.77;108527;1276;124679;-82
2024/03/29 05:27:11;;;;;;;;;;;;;;;6.29;87.41;95669.52;108671;1274;22617;-82
2024/03/29 05:29:37;;;;;;;;;;;;;;;6.29;88.19;95679.24;108524;1277;125147;-82
2024/03/29 05:32:06;;;;;;;;;;;;;;;6.28;87.42;95692.44;108602;1273;22520;-83
2024/03/29 05:34:32;;;;;;;;;;;;;;;6.29;87.10;95697.02;108626;1280;22552;-82
2024/03/29 05:36:59;;;;;;;;;;;;;;;6.31;87.22;95689.86;108571;1280;124608;-82
2024/03/29 05:39:25;;;;;;;;;;;;;;;6.34;87.02;95693.72;108574;1281;23285;-82
2024/03/29 05:41:51;;;;;;;;;;;;;;;6.34;86.75;95687.88;108498;1279;124703;-82
2024/03/29 05:44:17;;;;;;;;;;;;;;;6.36;86.41;95690.20;108640;1273;22537;-82
2024/03/29 05:46:44;;;;;;;;;;;;;;;6.41;85.87;95696.04;108661;1276;22487;-82
2024/03/29 05:49:10;;;;;;;;;;;;;;;6.48;84.62;95701.47;108616;1279;124533;-82
2024/03/29 05:51:37;;;;;;;;;;;;;;;6.56;84.10;95709.64;108699;1273;23011;-82
2024/03/29 05:54:03;;;;;;;;;;;;;;;6.61;84.28;95715.08;108470;1280;124546;-82
2024/03/29 05:56:30;;;;;;;;;;;;;;;6.65;84.45;95713.46;108579;1276;22663;-82
2024/03/29 05:58:56;;;;;;;;;;;;;;;6.66;84.24;95715.77;108607;1280;23118;-82
2024/03/29 06:01:23;;;;;;;;;;;;;;;6.66;84.93;95706.14;108539;1273;124546;-82
2024/03/29 06:03:54;;;;;;;;;;;;;;;6.63;85.31;95700.70;108623;1273;22500;-82
2024/03/29 06:06:23;;;;;;;;;;;;;;;6.62;84.70;95692.77;108618;1261;125130;-82
2024/03/29 06:08:50;;;;;;;;;;;;;;;6.65;83.96;95685.85;108780;1272;22596;-82
2024/03/29 06:11:16;;;;;;;;;;;;;;;6.71;83.97;95680.38;108585;1280;124670;-82
2024/03/29 06:19:15;;;;;;;;;;;;;;;6.93;81.82;95703.55;108294;1280;124554;-82
2024/03/29 06:21:42;;;;;;;;;;;;;;;6.99;81.56;95695.23;108635;1274;22474;-82
2024/03/29 06:24:12;;;;;;;;;;;;;;;7.05;80.91;95688.65;108597;1273;124719;-82
2024/03/29 06:26:41;;;;;;;;;;;;;;;7.13;80.30;95681.11;108621;1280;24417;-82
2024/03/29 06:29:11;;;;;;;;;;;;;;;7.18;79.95;95684.08;108426;1276;125092;-83
2024/03/29 06:31:37;;;;;;;;;;;;;;;7.23;80.56;95680.20;108658;1273;23144;-82
2024/03/29 06:34:03;;;;;;;;;;;;;;;7.28;78.99;95677.08;108708;1280;22643;-82
2024/03/29 06:36:31;;;;;;;;;;;;;;;7.34;79.41;95679.36;108510;1276;124636;-82
2024/03/29 06:38:57;;;;;;;;;;;;;;;7.37;79.82;95688.66;108639;1273;22521;-82
2024/03/29 06:41:23;;;;;;;;;;;;;;;7.40;79.29;95694.58;108632;1275;126912;-82
2024/03/29 06:43:50;;;;;;;;;;;;;;;7.46;78.87;95700.95;108659;1273;23850;-82
2024/03/29 06:46:16;;;;;;;;;;;;;;;7.55;77.50;95712.40;108666;1274;22573;-82
2024/03/29 06:48:42;;;;;;;;;;;;;;;7.64;76.98;95703.91;108614;1276;124517;-82
2024/03/29 06:51:09;;;;;;;;;;;;;;;7.70;77.07;95702.98;108649;1275;22518;-82
2024/03/29 06:53:37;;;;;;;;;;;;;;;7.77;76.89;95696.64;108573;1280;124745;-82
2024/03/29 06:56:04;;;;;;;;;;;;;;;7.84;77.36;95694.59;108713;1279;22550;-82
2024/03/29 06:58:30;;;;;;;;;;;;;;;7.91;75.73;95698.48;108687;1279;22533;-82
2024/03/29 07:00:58;;;;;;;;;;;;;;;7.99;75.91;95695.27;108551;1273;124878;-82
2024/03/29 07:03:25;;;;;;;;;;;;;;;8.06;74.02;95698.85;108675;1272;23197;-82
2024/03/29 07:05:51;;;;;;;;;;;;;;;8.16;75.54;95707.44;108500;1270;124800;-82
2024/03/29 07:08:17;;;;;;;;;;;;;;;8.21;74.65;95698.66;108574;1275;25299;-82
2024/03/29 07:10:43;;;;;;;;;;;;;;;8.27;74.40;95703.92;108668;1280;24268;-82
2024/03/29 07:13:10;;;;;;;;;;;;;;;8.33;74.30;95708.15;108526;1280;124863;-82
2024/03/29 07:15:36;;;;;;;;;;;;;;;8.38;73.54;95709.20;108575;1280;22542;-82
2024/03/29 07:18:03;;;;;;;;;;;;;;;8.45;75.14;95698.88;108522;1280;124873;-82
2024/03/29 07:20:29;;;;;;;;;;;;;;;8.53;74.17;95685.73;108946;1280;22531;-82
2024/03/29 07:22:56;;;;;;;;;;;;;;;8.62;71.72;95690.91;108872;1280;22656;-83
2024/03/29 07:25:22;;;;;;;;;;;;;;;8.73;72.37;95692.56;108708;1272;124376;-84
2024/03/29 07:27:48;;;;;;;;;;;;;;;8.81;73.08;95685.92;108774;1260;24236;-84
2024/03/29 07:30:18;;;;;;;;;;;;;;;8.86;72.25;95690.91;108587;1267;124152;-86
2024/03/29 07:32:44;;;;;;;;;;;;;;;8.92;71.46;95703.98;108673;1260;22537;-83
2024/03/29 07:35:12;;;;;;;;;;;;;;;9.00;71.75;95711.04;108701;1280;22510;-84
2024/03/29 07:37:40;;;;;;;;;;;;;;;9.08;71.90;95709.52;108592;1272;124204;-84
2024/03/29 07:40:06;;;;;;;;;;;;;;;9.15;72.15;95716.13;108715;1274;24258;-84
2024/03/29 07:42:32;;;;;;;;;;;;;;;9.23;71.29;95724.98;108596;1264;124017;-85
2024/03/29 07:44:59;;;;;;;;;;;;;;;9.30;71.82;95725.64;108757;1272;22507;-84
2024/03/29 07:47:25;;;;;;;;;;;;;;;9.36;72.94;95728.34;108768;1277;22465;-83
2024/03/29 07:49:52;;;;;;;;;;;;;;;9.43;72.84;95734.58;108670;1280;124552;-85
2024/03/29 07:52:19;;;;;;;;;;;;;;;9.50;73.49;95732.95;108802;1280;22525;-85
2024/03/29 07:54:45;;;;;;;;;;;;;;;9.58;72.75;95730.64;108710;1280;123859;-85
2024/03/29 07:57:14;;;;;;;;;;;;;;;9.64;72.41;95738.30;108669;1280;22485;-87
2024/03/29 07:59:40;;;;;;;;;;;;;;;9.72;72.95;95744.59;108678;1280;22579;-85
2024/03/29 08:02:07;;;;;;;;;;;;;;;9.79;73.39;95742.82;108609;1273;125197;-85
2024/03/29 08:04:34;;;;;;;;;;;;;;;9.88;73.16;95746.03;108826;1280;22478;-84
2024/03/29 08:07:00;;;;;;;;;;;;;;;9.98;73.21;95752.60;108599;1259;124280;-85
2024/03/29 08:09:26;;;;;;;;;;;;;;;10.07;71.90;95749.48;108823;1280;22890;-84
2024/03/29 08:11:53;;;;;;;;;;;;;;;10.17;70.27;95752.91;108794;1279;124412;-85
2024/03/29 08:14:19;;;;;;;;;;;;;;;10.26;69.40;95754.89;108809;1262;22627;-84
2024/03/29 08:16:45;;;;;;;;;;;;;;;10.37;68.94;95754.89;108822;1280;24239;-84
2024/03/29 08:19:12;;;;;;;;;;;;;;;10.47;67.14;95762.91;108606;1266;124467;-84
2024/03/29 08:21:38;;;;;;;;;;;;;;;10.51;64.55;95769.63;108629;1280;22552;-84
2024/03/29 08:24:05;;;;;;;;;;;;;;;10.55;62.37;95769.55;108603;1279;124423;-85
2024/03/29 08:26:31;;;;;;;;;;;;;;;10.59;63.69;95771.08;108633;1277;23570;-85
2024/03/29 08:28:59;;;;;;;;;;;;;;;10.64;64.12;95761.27;108706;1273;22499;-84
2024/03/29 08:31:25;;;;;;;;;;;;;;;10.72;63.88;95759.89;108699;1280;124460;-85
2024/03/29 08:33:52;;;;;;;;;;;;;;;10.79;63.73;95759.51;108621;1280;23294;-85
2024/03/29 08:36:18;;;;;;;;;;;;;;;10.84;62.71;95765.23;108608;1278;124943;-85
2024/03/29 08:38:46;;;;;;;;;;;;;;;10.92;63.07;95771.59;108780;1280;22597;-85
2024/03/29 08:41:13;;;;;;;;;;;;;;;10.97;63.16;95774.48;108762;1278;22550;-85
2024/03/29 08:43:39;;;;;;;;;;;;;;;11.03;62.75;95774.08;108545;1275;124295;-84
2024/03/29 08:46:05;;;;;;;;;;;;;;;11.10;62.38;95777.13;108683;1269;22499;-84
2024/03/29 08:48:32;;;;;;;;;;;;;;;11.18;61.06;95780.52;108646;1274;124410;-85
2024/03/29 08:50:58;;;;;;;;;;;;;;;11.20;60.02;95778.80;108738;1269;22563;-85
2024/03/29 08:53:27;;;;;;;;;;;;;;;11.21;60.93;95770.73;108720;1274;25413;-85
2024/03/29 08:55:53;;;;;;;;;;;;;;;11.23;60.75;95772.48;108564;1280;124446;-85
2024/03/29 08:58:20;;;;;;;;;;;;;;;11.28;60.03;95775.54;108714;1279;22573;-85
2024/03/29 09:00:54;;;;;;;;;;;;;;;11.32;60.97;95779.85;108680;1279;124222;-85
2024/03/29 09:03:20;;;;;;;;;;;;;;;11.38;62.14;95771.92;108588;1277;22521;-85
2024/03/29 09:05:46;;;;;;;;;;;;;;;11.44;62.08;95767.48;108668;1279;124901;-85
2024/03/29 09:08:13;;;;;;;;;;;;;;;11.51;62.81;95767.10;108652;1280;22645;-85
2024/03/29 09:10:40;;;;;;;;;;;;;;;11.56;62.95;95766.18;108633;1273;24190;-85
2024/03/29 09:13:07;;;;;;;;;;;;;;;11.62;61.36;95764.82;108684;1279;124191;-86
2024/03/29 09:15:33;;;;;;;;;;;;;;;11.65;62.36;95765.57;108841;1272;22543;-85
2024/03/29 09:18:03;;;;;;;;;;;;;;;11.70;63.02;95759.95;108685;1272;124981;-85
2024/03/29 09:20:29;;;;;;;;;;;;;;;11.80;62.39;95761.34;108754;1279;25441;-85
2024/03/29 09:22:56;;;;;;;;;;;;;;;11.85;61.45;95753.95;108808;1273;22520;-85
2024/03/29 09:25:22;;;;;;;;;;;;;;;11.89;62.11;95751.17;108685;1279;124229;-85
2024/03/29 09:27:49;;;;;;;;;;;;;;;11.96;62.96;95752.59;108737;1273;22584;-85
2024/03/29 09:30:15;;;;;;;;;;;;;;;12.05;61.79;95757.17;108674;1266;125287;-85
2024/03/29 09:32:42;;;;;;;;;;;;;;;12.09;61.91;95756.91;108818;1279;23271;-85
2024/03/29 09:35:08;;;;;;;;;;;;;;;12.13;61.70;95755.17;108739;1274;23252;-85
2024/03/29 09:37:36;;;;;;;;;;;;;;;12.19;60.37;95755.46;108704;1260;124227;-85
2024/03/29 09:40:04;;;;;;;;;;;;;;;12.24;60.37;95759.95;108643;1266;183276;-85
2024/03/29 09:42:32;;;;;;;;;;;;;;;12.30;56.67;95752.06;108873;1279;124582;-86
2024/03/29 09:45:02;;;;;;;;;;;;;;;12.30;57.48;95756.10;110080;1273;22389;-86
2024/03/29 09:47:28;;;;;;;;;;;;;;;12.37;59.21;95753.36;110119;1272;22326;-85
2024/03/29 09:49:55;;;;;;;;;;;;;;;12.46;59.38;95755.06;109042;1275;124235;-86
2024/03/29 09:52:21;;;;;;;;;;;;;;;12.54;58.71;95757.77;108760;1280;22509;-85
2024/03/29 09:54:47;;;;;;;;;;;;;;;12.62;58.46;95756.30;108580;1280;124261;-86
2024/03/29 09:57:14;;;;;;;;;;;;;;;12.66;56.75;95751.77;108679;1273;22506;-85
2024/03/29 09:59:40;;;;;;;;;;;;;;;12.71;58.16;95750.30;108645;1281;22593;-84
2024/03/29 10:02:19;;;;;;;;;;;;;;;12.77;56.22;95747.27;108796;1278;124081;-85
2024/03/29 10:04:46;;;;;;;;;;;;;;;12.82;55.58;95754.61;108887;1279;22981;-85
2024/03/29 10:07:14;;;;;;;;;;;;;;;12.89;55.97;95749.52;108656;1276;124446;-84
2024/03/29 10:09:42;;;;;;;;;;;;;;;12.96;55.50;95753.20;108676;1278;24202;-86
2024/03/29 10:12:08;;;;;;;;;;;;;;;13.04;54.22;95742.97;108553;1280;124388;-86
2024/03/29 10:14:49;;;;;;;;;;;;;;;13.08;54.09;95731.21;108728;1280;22534;-85
2024/03/29 10:17:17;;;;;;;;;;;;;;;13.16;53.78;95734.73;109630;1276;22496;-85
2024/03/29 10:19:43;;;;;;;;;;;;;;;13.25;53.19;95735.69;108611;1273;124237;-86
2024/03/29 10:22:13;;;;;;;;;;;;;;;13.30;53.17;95734.27;108758;1280;22467;-85
2024/03/29 10:24:40;;;;;;;;;;;;;;;13.36;54.33;95731.50;108584;1275;124296;-85
2024/03/29 10:27:06;;;;;;;;;;;;;;;13.43;54.00;95731.22;108602;1280;22585;-86
2024/03/29 10:29:33;;;;;;;;;;;;;;;13.49;53.01;95734.61;108721;1276;22516;-86
2024/03/29 10:32:00;;;;;;;;;;;;;;;13.55;54.16;95729.95;108668;1280;124206;-86
2024/03/29 10:34:26;;;;;;;;;;;;;;;13.61;52.87;95727.27;108715;1275;22592;-85
2024/03/29 10:36:53;;;;;;;;;;;;;;;13.67;51.85;95730.79;108612;1280;124376;-86
2024/03/29 10:39:19;;;;;;;;;;;;;;;13.70;51.89;95719.84;108728;1278;22506;-86
2024/03/29 10:41:46;;;;;;;;;;;;;;;13.77;51.96;95716.14;108678;1280;23304;-87
2024/03/29 10:44:14;;;;;;;;;;;;;;;13.84;51.76;95705.70;108693;1280;22587;-83
2024/03/29 10:46:41;;;;;;;;;;;;;;;13.91;51.42;95695.54;108720;1280;22477;-83
2024/03/29 10:49:11;;;;;;;;;;;;;;;13.96;51.09;95686.95;108765;1280;124272;-83
2024/03/29 10:51:38;;;;;;;;;;;;;;;14.01;51.79;95682.48;109032;1273;22548;-83
2024/03/29 10:54:05;;;;;;;;;;;;;;;14.04;49.76;95678.75;108771;1275;124378;-83
2024/03/29 10:56:32;;;;;;;;;;;;;;;14.11;50.12;95678.81;108758;1280;22504;-83
2024/03/29 10:58:59;;;;;;;;;;;;;;;14.19;49.86;95669.72;108859;1280;25404;-83
2024/03/29 11:01:26;;;;;;;;;;;;;;;14.26;50.06;95664.98;108575;1280;124850;-83
2024/03/29 11:03:57;;;;;;;;;;;;;;;14.32;49.85;95654.65;108679;1280;22569;-83
2024/03/29 11:06:25;;;;;;;;;;;;;;;14.40;49.35;95648.48;108626;1279;124658;-83
2024/03/29 11:08:51;;;;;;;;;;;;;;;14.48;49.22;95651.10;108766;1280;22561;-83
2024/03/29 11:11:17;;;;;;;;;;;;;;;14.53;50.06;95651.18;108771;1272;22499;-83
2024/03/29 11:13:44;;;;;;;;;;;;;;;14.60;49.26;95649.45;108622;1279;124522;-83
2024/03/29 11:16:11;;;;;;;;;;;;;;;14.64;47.66;95645.26;108794;1272;25340;-83
2024/03/29 11:18:37;;;;;;;;;;;;;;;14.68;50.12;95636.50;108678;1280;124306;-83
2024/03/29 11:21:06;;;;;;;;;;;;;;;14.77;49.90;95644.73;108691;1280;22611;-83
2024/03/29 11:23:32;;;;;;;;;;;;;;;14.85;48.45;95631.77;108702;1273;22599;-83
2024/03/29 11:25:59;;;;;;;;;;;;;;;14.91;48.89;95624.83;108638;1258;125329;-83
2024/03/29 11:28:29;;;;;;;;;;;;;;;14.97;48.85;95634.39;108727;1268;22531;-83
2024/03/29 11:30:56;;;;;;;;;;;;;;;15.06;47.93;95632.80;108634;1279;124418;-83
2024/03/29 11:33:26;;;;;;;;;;;;;;;15.08;48.43;95629.45;108751;1275;22552;-82
2024/03/29 11:35:52;;;;;;;;;;;;;;;15.13;49.02;95623.34;108645;1279;124421;-83
2024/03/29 11:38:18;;;;;;;;;;;;;;;15.15;48.13;95610.95;108633;1273;22471;-83
2024/03/29 11:40:55;;;;;;;;;;;;;;;15.17;48.83;95600.84;108694;1273;22499;-83
2024/03/29 11:43:21;;;;;;;;;;;;;;;15.19;48.84;95588.48;108644;1272;124219;-83
2024/03/29 11:45:48;;;;;;;;;;;;;;;15.23;49.20;95586.70;108758;1272;24253;-83
2024/03/29 11:48:15;;;;;;;;;;;;;;;15.31;49.43;95592.85;108677;1276;124316;-83
2024/03/29 11:50:41;;;;;;;;;;;;;;;15.38;49.62;95593.15;108693;1275;22492;-83
2024/03/29 11:53:07;;;;;;;;;;;;;;;15.48;50.45;95597.02;108730;1265;25160;-83
2024/03/29 11:55:34;;;;;;;;;;;;;;;15.55;49.02;95596.70;108578;1275;124251;-83
2024/03/29 11:58:00;;;;;;;;;;;;;;;15.56;47.76;95595.55;108668;1274;22557;-83
2024/03/29 12:00:29;;;;;;;;;;;;;;;15.55;47.23;95604.43;108611;1273;124806;-83
2024/03/29 12:02:57;;;;;;;;;;;;;;;15.56;48.66;95602.11;108622;1278;22508;-83
2024/03/29 12:05:24;;;;;;;;;;;;;;;15.63;49.24;95595.09;108706;1280;22552;-83
2024/03/29 12:07:51;;;;;;;;;;;;;;;15.71;49.18;95596.29;108646;1280;124214;-82
2024/03/29 12:10:18;;;;;;;;;;;;;;;15.75;49.17;95598.56;108710;1275;22483;-83
2024/03/29 12:12:44;;;;;;;;;;;;;;;15.81;49.89;95595.65;108595;1279;125083;-83
2024/03/29 12:15:11;;;;;;;;;;;;;;;15.85;48.32;95598.73;108811;1260;23302;-83
2024/03/29 12:17:38;;;;;;;;;;;;;;;15.88;49.31;95591.23;108716;1269;22659;-83
2024/03/29 12:20:11;;;;;;;;;;;;;;;15.92;49.43;95585.16;108553;1280;124565;-83
2024/03/29 12:22:37;;;;;;;;;;;;;;;16.00;48.44;95586.98;108735;1276;22577;-83
2024/03/29 12:25:04;;;;;;;;;;;;;;;16.00;49.14;95588.35;108548;1275;124372;-83
2024/03/29 12:27:30;;;;;;;;;;;;;;;16.01;48.27;95587.96;108678;1280;22604;-83
2024/03/29 12:29:58;;;;;;;;;;;;;;;15.97;49.08;95578.41;108632;1273;124375;-83
2024/03/29 12:32:26;;;;;;;;;;;;;;;15.98;49.70;95572.82;110056;1280;22549;-83
2024/03/29 12:34:53;;;;;;;;;;;;;;;16.03;50.28;95569.80;110038;1275;23624;-83
2024/03/29 12:37:21;;;;;;;;;;;;;;;16.10;50.18;95564.21;109998;1279;124802;-83
2024/03/29 12:39:49;;;;;;;;;;;;;;;16.14;49.07;95549.05;110071;1273;22358;-83
2024/03/29 12:42:16;;;;;;;;;;;;;;;16.14;49.24;95545.02;108612;1280;125299;-83
2024/03/29 12:44:42;;;;;;;;;;;;;;;16.17;50.27;95554.02;108754;1279;22473;-83
2024/03/29 12:47:08;;;;;;;;;;;;;;;16.20;50.37;95558.94;108708;1280;22546;-83